Time;durP1;ratioP1;P1;durP2;ratioP2;P2;SDS_P1;SDS_P2;PMS_P1;PMS_P2;Temp;Humidity;BMP_temperature;BMP_pressure;BME280_temperature;BME280_humidity;BME280_pressure;Samples;Min_cycle;Max_cycle;Signal;HPM_P1;HPM_P2
2023/05/11 00:00:15;;;;;;;9.85;5.05;;;12.00;99.90;;;;;;5013254;28;20278;-68
2023/05/11 00:02:41;;;;;;;8.00;4.85;;;12.00;99.90;;;;;;5025480;28;20083;-67
2023/05/11 00:05:07;;;;;;;8.00;4.43;;;12.10;99.90;;;;;;5026738;28;20033;-68
2023/05/11 00:07:32;;;;;;;8.73;4.47;;;12.10;99.90;;;;;;5024842;28;21063;-68
2023/05/11 00:09:58;;;;;;;8.47;4.90;;;12.00;99.90;;;;;;5020325;28;20124;-67
2023/05/11 00:12:24;;;;;;;8.33;4.43;;;12.00;99.90;;;;;;5008238;28;20041;-68
2023/05/11 00:14:49;;;;;;;7.90;4.55;;;11.90;99.90;;;;;;5012772;28;20560;-67
2023/05/11 00:17:17;;;;;;;9.47;5.00;;;12.00;99.90;;;;;;5008653;28;20049;-68
2023/05/11 00:19:43;;;;;;;10.02;4.90;;;12.00;99.90;;;;;;5027235;28;20423;-68
2023/05/11 00:22:08;;;;;;;9.03;4.57;;;12.00;99.90;;;;;;5024786;28;20133;-68
2023/05/11 00:24:34;;;;;;;8.63;4.87;;;11.90;99.90;;;;;;5007940;28;20046;-68
2023/05/11 00:27:00;;;;;;;8.60;4.75;;;11.90;99.90;;;;;;5007901;28;20128;-67
2023/05/11 00:29:25;;;;;;;10.80;5.50;;;11.90;99.90;;;;;;5010323;28;20352;-68
2023/05/11 00:31:51;;;;;;;9.60;5.03;;;11.90;99.90;;;;;;5010810;22;20430;-67
2023/05/11 00:34:17;;;;;;;8.77;4.57;;;11.90;99.90;;;;;;5001280;28;20346;-68
2023/05/11 00:36:43;;;;;;;9.10;4.97;;;11.90;99.90;;;;;;4998678;28;20372;-68
2023/05/11 00:39:12;;;;;;;10.15;5.72;;;11.80;99.90;;;;;;4991065;28;20211;-68
2023/05/11 00:41:40;;;;;;;8.80;4.53;;;11.80;99.90;;;;;;4976367;28;20056;-67
2023/05/11 00:44:06;;;;;;;10.23;5.50;;;11.80;99.90;;;;;;4998768;28;20282;-67
2023/05/11 00:46:32;;;;;;;10.02;5.47;;;11.80;99.90;;;;;;4998717;28;20083;-68
2023/05/11 00:48:58;;;;;;;9.48;5.03;;;11.80;99.90;;;;;;5009295;28;20449;-68
2023/05/11 00:51:24;;;;;;;9.40;4.82;;;11.80;99.90;;;;;;5026981;28;20038;-68
2023/05/11 00:53:50;;;;;;;9.80;5.05;;;11.80;99.90;;;;;;5021984;28;20045;-68
2023/05/11 00:56:15;;;;;;;9.30;4.90;;;11.70;99.90;;;;;;4996112;28;20092;-67
2023/05/11 00:58:41;;;;;;;9.07;4.60;;;11.70;99.90;;;;;;5005237;28;20109;-67
2023/05/11 01:01:07;;;;;;;8.50;4.53;;;11.80;99.90;;;;;;4982575;28;20502;-68
2023/05/11 01:03:34;;;;;;;7.72;4.10;;;11.70;99.90;;;;;;4988452;28;20045;-67
2023/05/11 01:06:15;;;;;;;8.18;4.68;;;11.70;99.90;;;;;;4983744;28;20455;-68
2023/05/11 01:08:44;;;;;;;8.27;4.32;;;11.70;99.90;;;;;;5019080;28;20042;-67
2023/05/11 01:11:36;;;;;;;8.85;4.80;;;11.70;99.90;;;;;;4997658;28;20317;-77
2023/05/11 01:14:27;;;;;;;8.23;3.97;;;11.70;99.90;;;;;;4999650;28;20114;-67
2023/05/11 01:17:01;;;;;;;8.48;4.45;;;11.70;99.90;;;;;;5017840;28;20040;-68
2023/05/11 01:19:55;;;;;;;7.53;3.92;;;11.70;99.90;;;;;;4996345;28;20053;-68
2023/05/11 01:22:44;;;;;;;11.65;4.68;;;11.70;99.90;;;;;;5004896;28;20045;-68
2023/05/11 01:25:21;;;;;;;7.45;4.05;;;11.60;99.90;;;;;;5003013;28;20115;-76
2023/05/11 01:27:56;;;;;;;8.38;4.47;;;11.60;99.90;;;;;;5019101;28;20089;-68
2023/05/11 01:30:43;;;;;;;8.65;4.22;;;11.60;99.90;;;;;;5001086;28;20383;-67
2023/05/11 01:33:11;;;;;;;8.25;4.35;;;11.60;99.90;;;;;;4998483;28;20187;-67
2023/05/11 01:35:44;;;;;;;7.00;3.85;;;11.60;99.90;;;;;;4999891;28;20253;-67
2023/05/11 01:38:12;;;;;;;5.60;3.65;;;11.50;99.90;;;;;;4998413;28;20115;-68
2023/05/11 01:40:41;;;;;;;11.90;4.40;;;11.50;99.90;;;;;;4997063;28;20179;-68
2023/05/11 01:43:12;;;;;;;9.70;4.30;;;11.50;99.90;;;;;;5003299;28;20045;-68
2023/05/11 01:45:43;;;;;;;10.60;3.42;;;11.50;99.90;;;;;;5021210;28;20049;-68
2023/05/11 01:48:16;;;;;;;8.50;3.80;;;11.50;99.90;;;;;;5002500;28;20232;-68
2023/05/11 01:50:51;;;;;;;7.72;3.90;;;11.40;99.90;;;;;;5006241;28;20115;-69
2023/05/11 01:53:21;;;;;;;11.18;3.50;;;11.50;99.90;;;;;;4995645;28;20053;-68
2023/05/11 01:55:51;;;;;;;6.80;3.60;;;11.40;99.90;;;;;;5019798;28;20049;-68
2023/05/11 01:58:17;;;;;;;7.47;3.92;;;11.40;99.90;;;;;;5012586;28;20058;-68
2023/05/11 02:00:45;;;;;;;6.75;3.53;;;11.40;99.90;;;;;;5020362;28;20041;-68
2023/05/11 02:03:11;;;;;;;7.82;3.97;;;11.40;99.90;;;;;;4998501;28;20125;-68
2023/05/11 02:05:38;;;;;;;7.60;3.00;;;11.40;99.90;;;;;;5020024;28;20443;-68
2023/05/11 02:08:05;;;;;;;6.75;3.67;;;11.40;99.90;;;;;;5003274;28;20678;-68
2023/05/11 02:10:35;;;;;;;6.65;3.97;;;11.40;99.90;;;;;;5007862;28;20045;-68
2023/05/11 02:13:04;;;;;;;4.80;2.78;;;11.40;99.90;;;;;;5013989;28;20042;-68
2023/05/11 02:15:30;;;;;;;7.25;3.47;;;11.30;99.90;;;;;;5013892;28;20526;-68
2023/05/11 02:17:58;;;;;;;10.02;3.60;;;11.30;99.90;;;;;;4995547;28;20061;-68
2023/05/11 02:20:25;;;;;;;7.00;3.17;;;11.40;99.90;;;;;;4997073;28;20049;-68
2023/05/11 02:22:53;;;;;;;5.95;3.15;;;11.30;99.90;;;;;;4998823;28;20049;-68
2023/05/11 02:25:20;;;;;;;7.68;3.75;;;11.20;99.90;;;;;;5001204;28;20034;-68
2023/05/11 02:27:45;;;;;;;6.07;3.30;;;11.20;99.90;;;;;;4995643;28;20064;-68
2023/05/11 02:30:14;;;;;;;6.67;3.70;;;11.20;99.90;;;;;;5007344;28;20049;-67
2023/05/11 02:32:49;;;;;;;7.28;3.60;;;11.20;99.90;;;;;;5004439;28;20267;-68
2023/05/11 02:35:20;;;;;;;6.18;2.92;;;11.30;99.90;;;;;;5006675;28;20065;-68
2023/05/11 02:37:48;;;;;;;6.13;3.47;;;11.20;99.90;;;;;;5004486;28;20086;-68
2023/05/11 02:40:19;;;;;;;6.82;3.58;;;11.20;99.90;;;;;;4997851;28;20049;-68
2023/05/11 02:42:52;;;;;;;5.53;3.00;;;11.20;99.90;;;;;;5000311;28;20356;-67
2023/05/11 02:45:18;;;;;;;4.47;2.67;;;11.20;99.90;;;;;;4988883;28;20041;-68
2023/05/11 02:47:52;;;;;;;7.53;3.05;;;11.20;99.90;;;;;;5022696;28;20029;-68
2023/05/11 02:50:19;;;;;;;7.32;3.20;;;11.20;99.90;;;;;;4996063;28;20100;-68
2023/05/11 02:52:47;;;;;;;11.88;3.15;;;11.20;99.90;;;;;;4995633;28;20438;-68
2023/05/11 02:55:15;;;;;;;5.45;3.05;;;11.20;99.90;;;;;;4993573;28;20535;-68
2023/05/11 02:57:42;;;;;;;6.85;3.05;;;11.20;99.90;;;;;;4995003;28;20415;-68
2023/05/11 03:00:10;;;;;;;6.30;3.55;;;11.20;99.90;;;;;;4996722;28;20553;-68
2023/05/11 03:02:35;;;;;;;6.10;3.22;;;11.20;99.90;;;;;;5004472;28;20460;-68
2023/05/11 03:05:01;;;;;;;5.80;3.03;;;11.20;99.90;;;;;;5007053;28;20083;-68
2023/05/11 03:07:27;;;;;;;6.37;3.33;;;11.20;99.90;;;;;;5023587;28;20125;-69
2023/05/11 03:09:56;;;;;;;8.55;3.45;;;11.20;99.90;;;;;;4998856;28;20305;-68
2023/05/11 03:12:22;;;;;;;8.48;3.72;;;11.20;99.90;;;;;;5002277;28;20077;-68
2023/05/11 03:14:48;;;;;;;5.78;2.90;;;11.20;99.90;;;;;;4999798;28;20121;-68
2023/05/11 03:17:15;;;;;;;5.00;2.83;;;11.20;99.90;;;;;;5012882;28;20448;-68
2023/05/11 03:19:42;;;;;;;5.78;2.92;;;11.20;99.90;;;;;;4998661;28;20049;-68
2023/05/11 03:22:08;;;;;;;;;;;11.20;99.90;;;;;;4992741;28;20081;-68
2023/05/11 03:24:35;;;;;;;4.38;2.33;;;11.20;99.90;;;;;;5000313;28;19928;-68
2023/05/11 03:27:02;;;;;;;3.47;2.17;;;11.20;99.90;;;;;;4977938;28;20073;-68
2023/05/11 03:29:30;;;;;;;5.93;2.33;;;11.10;99.90;;;;;;5004512;28;20045;-68
2023/05/11 03:31:56;;;;;;;5.40;3.25;;;11.10;99.90;;;;;;5002244;28;20429;-68
2023/05/11 03:34:21;;;;;;;5.38;2.88;;;11.10;99.90;;;;;;5017376;28;20060;-68
2023/05/11 03:36:49;;;;;;;4.85;2.65;;;11.10;99.90;;;;;;5024622;28;20045;-68
2023/05/11 03:39:16;;;;;;;7.93;2.83;;;11.10;99.90;;;;;;5004070;28;20065;-68
2023/05/11 03:41:43;;;;;;;5.28;2.88;;;11.00;99.90;;;;;;4998860;28;20041;-68
2023/05/11 03:44:11;;;;;;;8.23;2.83;;;11.00;99.90;;;;;;5017131;28;20518;-68
2023/05/11 03:46:43;;;;;;;6.25;2.90;;;11.00;99.90;;;;;;4998851;28;20095;-68
2023/05/11 03:49:09;;;;;;;6.68;3.60;;;11.00;99.90;;;;;;5005737;28;20113;-68
2023/05/11 03:51:35;;;;;;;7.47;3.05;;;11.00;99.90;;;;;;5000088;28;20124;-68
2023/05/11 03:54:01;;;;;;;6.07;3.17;;;11.00;99.90;;;;;;5005193;28;20041;-68
2023/05/11 03:56:26;;;;;;;5.43;3.15;;;10.90;99.90;;;;;;4987425;28;20047;-68
2023/05/11 03:58:52;;;;;;;5.45;3.42;;;11.00;99.90;;;;;;5000340;28;20045;-68
2023/05/11 04:01:19;;;;;;;4.90;2.47;;;11.00;99.90;;;;;;4993620;28;20108;-68
2023/05/11 04:03:49;;;;;;;4.63;2.72;;;11.00;99.90;;;;;;5000189;28;20081;-68
2023/05/11 04:06:16;;;;;;;5.50;2.90;;;10.90;99.90;;;;;;5009157;28;20089;-68
2023/05/11 04:08:42;;;;;;;7.55;3.40;;;10.90;99.90;;;;;;5019359;28;20037;-68
2023/05/11 04:11:08;;;;;;;4.88;2.80;;;11.00;99.90;;;;;;5000592;28;20042;-68
2023/05/11 04:13:34;;;;;;;4.75;2.50;;;11.00;99.90;;;;;;5018376;28;20407;-68
2023/05/11 04:15:59;;;;;;;6.90;3.38;;;11.00;99.90;;;;;;5006578;28;20101;-68
2023/05/11 04:18:25;;;;;;;5.97;3.30;;;10.90;99.90;;;;;;5012787;28;20057;-68
2023/05/11 04:20:50;;;;;;;7.60;3.50;;;11.00;99.90;;;;;;4993405;28;20273;-68
2023/05/11 04:23:16;;;;;;;6.10;3.43;;;11.00;99.90;;;;;;5017303;28;20049;-68
2023/05/11 04:25:42;;;;;;;5.53;2.90;;;11.00;99.90;;;;;;4992745;28;20399;-68
2023/05/11 04:28:08;;;;;;;6.13;3.15;;;11.00;99.90;;;;;;4997814;28;20095;-68
2023/05/11 04:30:33;;;;;;;6.70;3.47;;;11.00;99.90;;;;;;5005463;28;20128;-68
2023/05/11 04:32:59;;;;;;;5.70;2.70;;;11.00;99.90;;;;;;4997333;28;20067;-68
2023/05/11 04:35:24;;;;;;;6.45;3.25;;;11.00;99.90;;;;;;4996741;28;20053;-68
2023/05/11 04:37:50;;;;;;;5.77;2.70;;;11.00;99.90;;;;;;5003466;28;20124;-68
2023/05/11 04:40:16;;;;;;;4.50;2.17;;;11.00;99.90;;;;;;4988509;28;20275;-68
2023/05/11 04:42:44;;;;;;;4.90;2.33;;;11.00;99.90;;;;;;4999489;28;20041;-68
2023/05/11 04:45:10;;;;;;;3.63;2.20;;;11.00;99.90;;;;;;5006397;28;20053;-68
2023/05/11 04:47:36;;;;;;;4.22;2.13;;;11.00;99.90;;;;;;5008398;28;20282;-68
2023/05/11 04:50:02;;;;;;;4.73;2.53;;;11.00;99.90;;;;;;5016004;28;20042;-67
2023/05/11 04:52:28;;;;;;;4.38;2.53;;;11.00;99.90;;;;;;4988752;28;20045;-68
2023/05/11 04:54:53;;;;;;;6.03;2.50;;;11.00;99.90;;;;;;5021665;28;20064;-68
2023/05/11 04:57:19;;;;;;;6.10;2.47;;;11.00;99.90;;;;;;5003536;28;20045;-68
2023/05/11 04:59:44;;;;;;;5.77;2.60;;;11.00;99.90;;;;;;5003017;28;20096;-67
2023/05/11 05:02:10;;;;;;;5.63;2.70;;;11.00;99.90;;;;;;5002834;28;20124;-68
2023/05/11 05:04:36;;;;;;;5.20;2.83;;;11.00;99.90;;;;;;5016060;28;20242;-68
2023/05/11 05:07:01;;;;;;;5.07;2.38;;;11.10;99.90;;;;;;4997232;28;20467;-68
2023/05/11 05:09:27;;;;;;;5.10;2.03;;;11.00;99.90;;;;;;4996186;28;20096;-68
2023/05/11 05:11:53;;;;;;;4.77;2.30;;;11.10;99.90;;;;;;4993819;28;20496;-67
2023/05/11 05:14:19;;;;;;;4.40;2.17;;;11.10;99.90;;;;;;5008629;28;20037;-68
2023/05/11 05:16:44;;;;;;;4.97;2.22;;;11.10;99.90;;;;;;5002889;28;20275;-68
2023/05/11 05:19:11;;;;;;;3.63;1.90;;;11.10;99.90;;;;;;5003180;28;20058;-76
2023/05/11 05:21:37;;;;;;;4.63;1.58;;;11.10;99.90;;;;;;4999450;28;20072;-69
2023/05/11 05:24:03;;;;;;;3.97;1.83;;;11.10;99.90;;;;;;4996902;28;20468;-68
2023/05/11 05:26:31;;;;;;;4.60;1.98;;;11.10;99.90;;;;;;5000310;28;20041;-70
2023/05/11 05:28:57;;;;;;;4.80;2.00;;;11.10;99.90;;;;;;5005744;28;20042;-70
2023/05/11 05:31:23;;;;;;;3.57;2.00;;;11.20;99.90;;;;;;5020225;28;20034;-69
2023/05/11 05:33:51;;;;;;;3.85;2.20;;;11.20;99.90;;;;;;4978328;28;20125;-71
2023/05/11 05:36:19;;;;;;;4.35;1.92;;;11.20;99.90;;;;;;4994375;28;20179;-69
2023/05/11 05:38:47;;;;;;;4.28;2.25;;;11.30;99.90;;;;;;4990588;28;20042;-68
2023/05/11 05:41:13;;;;;;;3.73;1.90;;;11.20;99.90;;;;;;5000532;28;20491;-70
2023/05/11 05:43:38;;;;;;;3.95;1.98;;;11.20;99.90;;;;;;5006786;28;20042;-68
2023/05/11 05:46:05;;;;;;;4.97;2.07;;;11.20;99.90;;;;;;5001071;28;20049;-69
2023/05/11 05:48:31;;;;;;;5.55;2.08;;;11.20;99.90;;;;;;4997591;28;20279;-69
2023/05/11 05:50:59;;;;;;;3.75;1.95;;;11.20;99.90;;;;;;4993447;28;20348;-71
2023/05/11 05:53:24;;;;;;;3.38;1.75;;;11.20;99.90;;;;;;4993878;28;20048;-68
2023/05/11 05:55:50;;;;;;;4.00;1.90;;;11.20;99.90;;;;;;4990086;28;20495;-71
2023/05/11 05:58:15;;;;;;;3.53;1.60;;;11.30;99.90;;;;;;5007125;28;20111;-70
2023/05/11 06:00:41;;;;;;;2.50;1.43;;;11.20;99.90;;;;;;5013438;28;20042;-72
2023/05/11 06:03:07;;;;;;;2.88;1.50;;;11.30;99.90;;;;;;4986635;28;20045;-70
2023/05/11 06:05:32;;;;;;;2.67;1.30;;;11.30;99.90;;;;;;4993621;28;20154;-69
2023/05/11 06:07:58;;;;;;;2.00;1.10;;;11.40;99.90;;;;;;4998929;28;20133;-72
2023/05/11 06:10:23;;;;;;;2.67;1.30;;;11.40;99.90;;;;;;5019450;28;20045;-71
2023/05/11 06:12:49;;;;;;;2.07;1.03;;;11.40;99.90;;;;;;5002050;28;20120;-72
2023/05/11 06:15:15;;;;;;;2.03;1.13;;;11.40;99.90;;;;;;5003675;28;20056;-76
2023/05/11 06:17:40;;;;;;;2.33;1.05;;;11.40;99.90;;;;;;5000158;28;20067;-69
2023/05/11 06:20:09;;;;;;;2.43;1.13;;;11.50;99.90;;;;;;5015075;28;20061;-71
2023/05/11 06:22:35;;;;;;;2.10;1.13;;;11.50;99.90;;;;;;4990890;28;20053;-69
2023/05/11 06:25:00;;;;;;;3.00;1.50;;;11.50;99.90;;;;;;4995032;28;20046;-73
2023/05/11 06:27:26;;;;;;;2.97;1.27;;;11.50;99.90;;;;;;4979287;28;20046;-76
2023/05/11 06:29:52;;;;;;;2.60;1.17;;;11.50;99.90;;;;;;4986966;28;20112;-70
2023/05/11 06:32:17;;;;;;;2.83;1.50;;;11.50;99.90;;;;;;5030428;23;20755;-76
2023/05/11 06:34:43;;;;;;;2.30;1.20;;;11.50;99.90;;;;;;5011628;28;20439;-71
2023/05/11 06:37:08;;;;;;;3.00;1.50;;;11.70;99.90;;;;;;5011159;28;20048;-71
2023/05/11 06:39:36;;;;;;;2.00;1.27;;;11.60;99.90;;;;;;5008685;28;20557;-71
2023/05/11 06:42:02;;;;;;;2.80;1.63;;;11.70;99.90;;;;;;5021008;28;20403;-71
2023/05/11 06:44:28;;;;;;;2.55;1.40;;;11.70;99.90;;;;;;5019240;28;20269;-71
2023/05/11 06:46:56;;;;;;;3.57;1.67;;;11.70;99.90;;;;;;4997636;28;20041;-71
2023/05/11 06:49:22;;;;;;;3.10;1.58;;;11.70;99.90;;;;;;4999395;28;20399;-72
2023/05/11 06:51:51;;;;;;;2.42;1.20;;;11.70;99.90;;;;;;5016050;28;20030;-71
2023/05/11 06:54:19;;;;;;;2.30;1.38;;;11.70;99.90;;;;;;5015662;28;20391;-79
2023/05/11 06:56:47;;;;;;;2.73;1.40;;;11.70;99.90;;;;;;5017724;28;20045;-73
2023/05/11 06:59:12;;;;;;;3.40;1.60;;;11.70;99.90;;;;;;5009189;28;21339;-70
2023/05/11 07:01:38;;;;;;;2.87;1.53;;;11.70;99.90;;;;;;5009686;28;20042;-71
2023/05/11 07:04:04;;;;;;;2.60;1.52;;;11.80;99.90;;;;;;5020894;28;20559;-71
2023/05/11 07:06:30;;;;;;;3.22;1.50;;;11.90;99.90;;;;;;5015580;28;20049;-70
2023/05/11 07:08:56;;;;;;;3.10;1.70;;;11.90;99.90;;;;;;5016210;28;20498;-71
2023/05/11 07:11:22;;;;;;;3.03;1.57;;;11.80;99.90;;;;;;5019787;28;20251;-71
2023/05/11 07:13:47;;;;;;;2.55;1.63;;;11.90;99.90;;;;;;5024034;28;20297;-71
2023/05/11 07:16:13;;;;;;;3.40;1.80;;;11.80;99.90;;;;;;5021999;28;20050;-71
2023/05/11 07:18:38;;;;;;;3.45;1.88;;;11.80;99.90;;;;;;5022326;28;20312;-70
2023/05/11 07:21:04;;;;;;;3.97;2.27;;;11.90;99.90;;;;;;5016469;28;20052;-70
2023/05/11 07:23:30;;;;;;;4.82;2.45;;;11.90;99.90;;;;;;5015705;28;20449;-71
2023/05/11 07:25:57;;;;;;;3.53;1.90;;;11.90;99.90;;;;;;5017706;28;20535;-70
2023/05/11 07:28:22;;;;;;;5.72;2.42;;;11.90;99.90;;;;;;5014532;28;20030;-71
2023/05/11 07:30:48;;;;;;;4.30;2.58;;;11.90;99.90;;;;;;5023408;28;20811;-71
2023/05/11 07:33:14;;;;;;;4.37;2.33;;;11.90;99.90;;;;;;5023890;28;20057;-71
2023/05/11 07:35:39;;;;;;;6.17;3.00;;;12.00;99.90;;;;;;5012955;28;20037;-71
2023/05/11 07:38:06;;;;;;;4.97;2.70;;;12.00;99.90;;;;;;4995446;28;20128;-71
2023/05/11 07:40:33;;;;;;;5.75;3.28;;;12.10;99.90;;;;;;5006205;28;20067;-71
2023/05/11 07:42:59;;;;;;;4.95;2.53;;;12.10;99.90;;;;;;5023103;28;20045;-71
2023/05/11 07:45:24;;;;;;;4.50;2.70;;;12.10;99.90;;;;;;5015199;28;20147;-70
2023/05/11 07:47:50;;;;;;;5.13;2.73;;;12.10;99.90;;;;;;5005402;28;20391;-71
2023/05/11 07:50:16;;;;;;;5.33;2.83;;;12.20;99.90;;;;;;5016896;28;20827;-71
2023/05/11 07:52:41;;;;;;;7.17;3.37;;;12.20;99.90;;;;;;5018075;28;20552;-71
2023/05/11 07:55:07;;;;;;;5.30;2.63;;;12.20;99.90;;;;;;5020949;28;20856;-71
2023/05/11 07:57:33;;;;;;;5.88;3.50;;;12.20;99.90;;;;;;5019302;28;20100;-71
2023/05/11 07:59:58;;;;;;;6.17;3.23;;;12.20;99.90;;;;;;5000989;28;20095;-71
2023/05/11 08:02:24;;;;;;;6.77;3.70;;;12.30;99.90;;;;;;5008119;28;20440;-70
2023/05/11 08:04:49;;;;;;;6.43;3.10;;;12.30;99.90;;;;;;5009287;28;20103;-71
2023/05/11 08:07:15;;;;;;;7.03;3.30;;;12.30;99.90;;;;;;5012826;28;20150;-71
2023/05/11 08:09:41;;;;;;;6.13;3.27;;;12.30;99.90;;;;;;5012712;28;20588;-71
2023/05/11 08:12:08;;;;;;;8.98;4.07;;;12.20;99.90;;;;;;5013192;28;20460;-71
2023/05/11 08:14:33;;;;;;;6.38;3.53;;;12.20;99.90;;;;;;5013642;28;20053;-71
2023/05/11 08:16:59;;;;;;;10.00;4.32;;;12.20;99.90;;;;;;5019089;28;20498;-71
2023/05/11 08:19:25;;;;;;;8.70;4.55;;;12.30;99.90;;;;;;4987856;28;20369;-71
2023/05/11 08:21:51;;;;;;;7.57;4.40;;;12.30;99.90;;;;;;5016808;28;20272;-71
2023/05/11 08:24:16;;;;;;;7.38;4.20;;;12.30;99.90;;;;;;5015007;28;20560;-73
2023/05/11 08:26:42;;;;;;;8.30;4.33;;;12.40;99.90;;;;;;5014444;28;20041;-71
2023/05/11 08:29:09;;;;;;;9.57;4.93;;;12.40;99.90;;;;;;5020006;28;20094;-71
2023/05/11 08:31:35;;;;;;;8.60;4.28;;;12.40;99.90;;;;;;5017900;28;20042;-71
2023/05/11 08:34:01;;;;;;;10.88;4.63;;;12.40;99.90;;;;;;5016048;28;20103;-71
2023/05/11 08:36:27;;;;;;;12.23;5.10;;;12.40;99.90;;;;;;5030660;28;20069;-76
2023/05/11 08:38:52;;;;;;;11.37;5.17;;;12.40;99.90;;;;;;5016528;28;20525;-75
2023/05/11 08:41:18;;;;;;;10.93;5.30;;;12.40;99.90;;;;;;5016537;28;20053;-70
2023/05/11 08:43:45;;;;;;;12.52;5.75;;;12.40;99.90;;;;;;5023788;28;20045;-70
2023/05/11 08:46:16;;;;;;;15.10;5.55;;;12.40;99.90;;;;;;5010026;28;20107;-70
2023/05/11 08:48:43;;;;;;;11.88;5.65;;;12.50;99.90;;;;;;5024782;28;20063;-76
2023/05/11 08:51:09;;;;;;;12.82;5.63;;;12.50;99.90;;;;;;5017604;28;20095;-70
2023/05/11 08:53:34;;;;;;;15.25;5.75;;;12.50;99.90;;;;;;5013971;28;20038;-71
2023/05/11 08:56:02;;;;;;;14.80;6.47;;;12.50;99.90;;;;;;5022969;28;20045;-70
2023/05/11 08:58:29;;;;;;;12.82;5.50;;;12.50;99.90;;;;;;5027537;28;20768;-71
2023/05/11 09:00:57;;;;;;;13.77;4.75;;;12.60;99.90;;;;;;5014332;28;20558;-73
2023/05/11 09:03:22;;;;;;;13.35;5.00;;;12.60;99.90;;;;;;5003703;28;20041;-79
2023/05/11 09:05:49;;;;;;;10.80;4.18;;;12.70;99.90;;;;;;5017917;28;20482;-72
2023/05/11 09:08:17;;;;;;;8.15;3.75;;;12.70;99.90;;;;;;5039789;28;20483;-71
2023/05/11 09:10:43;;;;;;;9.48;4.03;;;12.80;99.90;;;;;;5017204;28;20037;-71
2023/05/11 09:13:10;;;;;;;8.82;4.03;;;12.80;99.90;;;;;;5015610;28;20042;-71
2023/05/11 09:15:35;;;;;;;;;;;12.80;99.90;;;;;;5019792;28;20053;-71
2023/05/11 09:18:02;;;;;;;18.20;8.65;;;12.80;99.90;;;;;;5016890;28;19917;-71
2023/05/11 09:20:30;;;;;;;10.68;5.57;;;12.80;99.90;;;;;;5024802;28;20072;-71
2023/05/11 09:22:57;;;;;;;9.98;4.45;;;12.90;99.90;;;;;;5023790;28;20053;-71
2023/05/11 09:25:24;;;;;;;10.30;4.45;;;12.90;99.90;;;;;;5019045;28;20045;-71
2023/05/11 09:27:50;;;;;;;10.38;4.75;;;12.90;99.90;;;;;;5011385;28;20033;-71
2023/05/11 09:30:22;;;;;;;10.07;4.68;;;12.90;99.90;;;;;;5023166;28;20049;-71
2023/05/11 09:32:48;;;;;;;10.73;4.50;;;13.00;99.90;;;;;;5017860;28;20038;-70
2023/05/11 09:35:18;;;;;;;;;;;13.10;99.90;;;;;;5016328;28;20045;-71
2023/05/11 09:37:59;;;;;;;10.98;4.82;;;13.10;99.90;;;;;;5014329;28;20263;-72
2023/05/11 09:40:26;;;;;;;9.75;4.40;;;13.10;99.90;;;;;;5015770;28;20403;-72
2023/05/11 09:42:51;;;;;;;8.85;4.65;;;13.20;99.90;;;;;;5020113;28;20041;-72
2023/05/11 09:45:46;;;;;;;14.93;4.68;;;13.20;99.90;;;;;;5007603;28;20175;-72
2023/05/11 09:48:25;;;;;;;9.57;4.88;;;13.30;99.90;;;;;;5019344;28;20215;-72
2023/05/11 09:51:10;;;;;;;7.78;4.65;;;13.50;99.90;;;;;;5017723;28;20054;-72
2023/05/11 09:53:45;;;;;;;11.07;4.65;;;13.60;99.90;;;;;;5016025;28;20407;-72
2023/05/11 09:56:12;;;;;;;7.88;4.40;;;13.70;99.90;;;;;;5018849;28;20156;-72
2023/05/11 09:58:53;;;;;;;8.73;4.70;;;13.80;99.90;;;;;;5021278;28;20042;-72
2023/05/11 10:01:33;;;;;;;9.00;4.40;;;13.90;99.90;;;;;;5018405;28;20053;-72
2023/05/11 10:04:02;;;;;;;9.90;4.53;;;13.90;99.90;;;;;;5014236;28;20056;-72
2023/05/11 10:06:42;;;;;;;8.35;4.45;;;14.00;99.90;;;;;;5008906;28;20408;-72
2023/05/11 10:09:09;;;;;;;8.98;4.72;;;14.00;99.90;;;;;;5013312;28;20386;-72
2023/05/11 10:11:35;;;;;;;;;;;14.10;99.90;;;;;;5019177;28;20099;-72
2023/05/11 10:14:01;;;;;;;10.70;5.30;;;14.10;99.90;;;;;;5018993;28;19917;-72
2023/05/11 10:16:27;;;;;;;;;;;14.20;99.90;;;;;;5027939;28;20425;-72
2023/05/11 10:18:53;;;;;;;12.82;5.65;;;14.30;99.90;;;;;;5013389;28;20203;-72
2023/05/11 10:21:18;;;;;;;10.48;4.97;;;14.40;99.90;;;;;;5022514;28;20120;-72
2023/05/11 10:23:44;;;;;;;12.07;5.90;;;14.50;99.90;;;;;;5012579;28;20053;-72
2023/05/11 10:26:10;;;;;;;11.93;5.30;;;14.50;99.90;;;;;;5020004;28;20046;-72
2023/05/11 10:28:36;;;;;;;9.38;4.93;;;14.60;99.90;;;;;;4995865;28;20718;-71
2023/05/11 10:31:03;;;;;;;12.35;5.45;;;14.60;99.90;;;;;;5019504;28;20045;-70
2023/05/11 10:33:30;;;;;;;9.43;4.90;;;14.70;99.90;;;;;;5020792;28;20504;-75
2023/05/11 10:35:55;;;;;;;12.18;4.93;;;14.80;99.90;;;;;;5022673;28;20094;-70
2023/05/11 10:38:23;;;;;;;9.77;5.03;;;14.90;99.90;;;;;;5012938;28;20498;-72
2023/05/11 10:40:51;;;;;;;12.40;5.82;;;15.00;99.90;;;;;;5020370;28;20041;-71
2023/05/11 10:43:41;;;;;;;9.43;5.05;;;15.00;99.90;;;;;;5024880;28;20052;-72
2023/05/11 10:46:10;;;;;;;8.88;5.15;;;15.10;99.90;;;;;;5015353;28;20499;-72
2023/05/11 10:48:56;;;;;;;8.00;4.85;;;15.10;99.90;;;;;;5007817;28;20453;-72
2023/05/11 10:51:43;;;;;;;9.77;5.15;;;15.10;99.90;;;;;;5022394;28;20471;-72
2023/05/11 10:54:13;;;;;;;;;;;15.00;99.90;;;;;;5014086;28;20192;-72
2023/05/11 10:56:57;;;;;;;11.75;5.18;;;15.00;99.90;;;;;;5021807;28;20055;-72
2023/05/11 10:59:44;;;;;;;10.73;6.00;;;15.10;99.90;;;;;;5010410;28;20095;-72
2023/05/11 11:02:10;;;;;;;;;;;15.10;99.90;;;;;;5012414;28;20044;-72
2023/05/11 11:04:47;;;;;;;11.98;5.28;;;15.20;99.90;;;;;;5006154;28;19917;-72
2023/05/11 11:07:17;;;;;;;8.52;4.97;;;15.30;99.90;;;;;;4995569;28;20064;-72
2023/05/11 11:10:06;;;;;;;8.88;4.53;;;15.30;99.90;;;;;;5028768;28;20048;-71
2023/05/11 11:12:35;;;;;;;10.88;5.20;;;15.40;99.90;;;;;;5012421;28;20542;-71
2023/05/11 11:15:05;;;;;;;9.68;5.63;;;15.40;99.90;;;;;;5017990;28;20049;-71
2023/05/11 11:17:33;;;;;;;10.07;5.15;;;15.50;99.90;;;;;;5024450;28;20269;-71
2023/05/11 11:20:06;;;;;;;11.38;5.65;;;15.60;99.90;;;;;;5012934;28;20042;-71
2023/05/11 11:22:35;;;;;;;8.20;4.65;;;15.70;99.90;;;;;;5024872;28;20080;-71
2023/05/11 11:25:15;;;;;;;7.85;5.25;;;15.80;99.90;;;;;;5014703;28;20550;-72
2023/05/11 11:27:40;;;;;;;10.55;5.05;;;15.90;99.90;;;;;;5021666;28;20088;-71
2023/05/11 11:30:20;;;;;;;11.40;5.32;;;15.90;99.90;;;;;;5013590;28;20037;-71
2023/05/11 11:32:47;;;;;;;8.88;5.03;;;15.90;99.90;;;;;;5023339;28;20041;-71
2023/05/11 11:35:38;;;;;;;8.52;5.45;;;16.00;99.90;;;;;;5006154;28;20531;-72
2023/05/11 11:38:05;;;;;;;8.70;5.07;;;16.10;99.90;;;;;;5021864;28;20103;-71
2023/05/11 11:40:38;;;;;;;8.35;5.10;;;16.10;99.90;;;;;;5025230;28;20064;-72
2023/05/11 11:43:12;;;;;;;8.10;4.68;;;16.10;99.90;;;;;;5016628;28;20045;-72
2023/05/11 11:45:39;;;;;;;8.48;5.30;;;16.20;99.90;;;;;;5027379;28;20128;-72
2023/05/11 11:48:16;;;;;;;6.95;4.85;;;16.20;99.90;;;;;;5022074;28;20141;-72
2023/05/11 11:50:43;;;;;;;11.05;6.13;;;16.20;99.90;;;;;;5021967;28;20132;-72
2023/05/11 11:53:32;;;;;;;12.82;7.20;;;16.20;99.90;;;;;;5020895;28;20100;-72
2023/05/11 11:55:58;;;;;;;12.07;7.93;;;16.20;99.90;;;;;;5025829;28;20388;-72
2023/05/11 11:58:42;;;;;;;11.27;7.10;;;16.30;99.90;;;;;;5021036;28;20048;-72
2023/05/11 12:01:11;;;;;;;11.40;6.68;;;16.30;99.90;;;;;;4998895;28;20403;-71
2023/05/11 12:03:38;;;;;;;11.02;6.75;;;16.50;99.90;;;;;;5024804;28;20099;-72
2023/05/11 12:06:06;;;;;;;9.80;5.25;;;16.60;99.90;;;;;;5024847;28;20049;-72
2023/05/11 12:08:32;;;;;;;11.60;6.40;;;16.70;99.90;;;;;;5026083;28;20253;-72
2023/05/11 12:10:58;;;;;;;9.05;5.55;;;16.80;99.90;;;;;;5021776;28;20278;-72
2023/05/11 12:13:24;;;;;;;;;;;16.90;99.90;;;;;;5029656;28;20050;-71
2023/05/11 12:16:06;;;;;;;10.93;4.90;;;17.00;99.90;;;;;;5022335;28;19971;-72
2023/05/11 12:18:31;;;;;;;5.95;3.50;;;17.10;99.90;;;;;;5018068;28;20046;-72
2023/05/11 12:20:57;;;;;;;6.57;3.40;;;17.10;99.90;;;;;;5026296;28;20040;-72
2023/05/11 12:23:22;;;;;;;7.20;4.38;;;17.20;99.90;;;;;;5023813;28;20056;-72
2023/05/11 12:26:03;;;;;;;7.95;4.57;;;17.20;99.90;;;;;;5020914;28;20099;-72
2023/05/11 12:28:28;;;;;;;8.07;5.18;;;17.10;99.90;;;;;;5021261;28;20505;-71
2023/05/11 12:37:56;;;;;;;7.45;4.93;;;17.20;99.90;;;;;;5044771;22;20041;-71
2023/05/11 12:40:22;;;;;;;7.20;5.28;;;17.30;99.90;;;;;;5034230;28;20164;-71
2023/05/11 12:42:53;;;;;;;9.20;6.03;;;17.30;99.90;;;;;;5027058;28;20499;-71
2023/05/11 12:45:19;;;;;;;8.50;5.72;;;17.50;99.90;;;;;;5005590;28;20385;-71
2023/05/11 12:47:50;;;;;;;8.15;5.65;;;17.60;99.90;;;;;;5031291;28;20395;-71
2023/05/11 12:50:16;;;;;;;6.00;4.30;;;17.70;99.90;;;;;;5029804;28;20037;-71
2023/05/11 12:52:42;;;;;;;9.00;4.78;;;17.80;99.90;;;;;;5019527;28;20511;-71
2023/05/11 12:55:10;;;;;;;6.60;4.38;;;17.90;99.90;;;;;;5016900;28;20492;-72
2023/05/11 12:57:37;;;;;;;6.88;4.53;;;17.90;99.90;;;;;;5026377;28;20384;-71
2023/05/11 13:00:15;;;;;;;5.60;4.15;;;17.90;99.90;;;;;;5032056;28;20413;-71